Riverton, Washington
Current Conditions -  °F | °C
As of 12:53 AM on Wednesday 26 Nov 2014 (Local Time) from KSEA Reporting Station
Overcast Overcast  
Wind Chill: 56°   Ceiling: 900
Heat Index: 56°   Visibility: 10mi
Dew Point: 53°   Wind: 14mph
Humidity: 90%   Direction: 200°SSW
Pressure: 30.19"   Gusts: NA
Location:  47.4488°N, 122.28°W
Report Text: KSEA 260853Z 20012KT 10SM BKN009 OVC020 13/12 A3019 RMK AO2 SLP230 P0001 60002 T01330117 50002
Loading
Personal Weather Stations






























Interactive Weather Map New forecast layout! Learn more

10-Day Weather Forecast

Advertisements
Track Severe Weather on mobile